Time;durP1;ratioP1;P1;durP2;ratioP2;P2;SDS_P1;SDS_P2;PMS_P1;PMS_P2;Temp;Humidity;BMP_temperature;BMP_pressure;BME280_temperature;BME280_humidity;BME280_pressure;Samples;Min_cycle;Max_cycle;Signal;HPM_P1;HPM_P2
2024/02/14 00:00:13;;;;;;;13.97;5.70;;;3.10;98.00;;;;;;5075020;28;20445;-69
2024/02/14 00:02:40;;;;;;;10.40;5.30;;;3.20;98.00;;;;;;5075072;28;20448;-69
2024/02/14 00:05:10;;;;;;;10.50;4.97;;;3.20;98.00;;;;;;5074456;28;21003;-69
2024/02/14 00:07:37;;;;;;;10.70;5.13;;;3.20;98.00;;;;;;5074259;28;20497;-69
2024/02/14 00:10:06;;;;;;;13.70;5.23;;;3.20;98.00;;;;;;5056546;28;20459;-69
2024/02/14 00:12:36;;;;;;;9.60;4.87;;;3.20;98.00;;;;;;5057384;28;20536;-69
2024/02/14 00:15:05;;;;;;;11.60;5.00;;;3.00;98.00;;;;;;5074777;28;20455;-69
2024/02/14 00:17:35;;;;;;;8.30;4.47;;;3.00;98.00;;;;;;5074806;28;21064;-68
2024/02/14 00:20:03;;;;;;;11.03;5.30;;;2.90;98.00;;;;;;5056151;28;20779;-69
2024/02/14 00:22:30;;;;;;;13.93;5.43;;;2.90;98.00;;;;;;5074260;28;20471;-69
2024/02/14 00:24:58;;;;;;;11.50;4.83;;;2.90;98.00;;;;;;5040554;28;20464;-69
2024/02/14 00:27:27;;;;;;;15.47;5.63;;;3.10;98.00;;;;;;5074746;28;20451;-69
2024/02/14 00:29:56;;;;;;;10.07;4.43;;;3.20;98.00;;;;;;5074637;28;20452;-69
2024/02/14 00:32:23;;;;;;;13.43;4.67;;;3.40;98.00;;;;;;5074605;28;20992;-69
2024/02/14 00:34:50;;;;;;;12.00;4.93;;;3.40;98.00;;;;;;5074012;28;20647;-69
2024/02/14 00:37:17;;;;;;;10.97;5.30;;;3.40;98.00;;;;;;5074809;28;20973;-69
2024/02/14 00:39:44;;;;;;;10.20;4.97;;;3.30;98.00;;;;;;5074544;28;20450;-69
2024/02/14 00:42:12;;;;;;;11.27;4.70;;;3.40;98.00;;;;;;5074465;28;20509;-69
2024/02/14 00:44:39;;;;;;;10.27;4.37;;;3.40;98.00;;;;;;5074525;28;20458;-69
2024/02/14 00:47:07;;;;;;;9.93;4.97;;;3.20;98.00;;;;;;5074550;28;20444;-69
2024/02/14 00:49:37;;;;;;;11.87;5.57;;;3.10;98.00;;;;;;5074153;28;20450;-69
2024/02/14 00:52:04;;;;;;;12.47;4.70;;;3.10;98.00;;;;;;5056006;28;20474;-69
2024/02/14 00:54:32;;;;;;;10.50;4.90;;;3.10;98.00;;;;;;5074563;28;20930;-69
2024/02/14 00:56:59;;;;;;;8.57;4.77;;;3.10;98.00;;;;;;5056811;28;20475;-69
2024/02/14 00:59:26;;;;;;;8.60;4.57;;;3.20;98.00;;;;;;5074254;28;20454;-69
2024/02/14 01:01:53;;;;;;;11.60;4.90;;;3.30;98.00;;;;;;5074108;28;20841;-69
2024/02/14 01:04:21;;;;;;;12.53;4.70;;;3.30;98.00;;;;;;5056224;28;20536;-69
2024/02/14 01:06:49;;;;;;;8.20;4.10;;;3.40;98.00;;;;;;5073832;28;20456;-69
2024/02/14 01:09:17;;;;;;;11.97;4.90;;;3.50;98.00;;;;;;5073784;28;20446;-69
2024/02/14 01:11:44;;;;;;;9.70;4.50;;;3.50;98.00;;;;;;5073686;28;20545;-69
2024/02/14 01:14:13;;;;;;;9.13;4.83;;;3.60;98.00;;;;;;5073659;28;20481;-69
2024/02/14 01:16:44;;;;;;;11.17;4.93;;;3.60;98.00;;;;;;5073562;28;20525;-69
2024/02/14 01:19:11;;;;;;;10.23;4.83;;;3.60;98.00;;;;;;5073619;28;20492;-69
2024/02/14 01:21:39;;;;;;;10.50;5.07;;;3.80;98.00;;;;;;5073851;28;20463;-69
2024/02/14 01:24:08;;;;;;;12.80;4.80;;;3.90;98.00;;;;;;5073410;28;20452;-69
2024/02/14 01:26:35;;;;;;;10.57;4.97;;;3.90;98.00;;;;;;5073493;28;20495;-69
2024/02/14 01:29:05;;;;;;;8.03;4.73;;;3.90;98.00;;;;;;5073285;28;20448;-69
2024/02/14 01:31:32;;;;;;;9.13;4.57;;;3.90;98.00;;;;;;5073406;28;20477;-69
2024/02/14 01:34:01;;;;;;;9.23;4.40;;;4.10;98.00;;;;;;5073243;28;20452;-69
2024/02/14 01:36:29;;;;;;;9.27;4.87;;;4.20;98.00;;;;;;5073496;28;20448;-69
2024/02/14 01:38:57;;;;;;;8.80;4.40;;;4.20;98.00;;;;;;5055537;28;20482;-69
2024/02/14 01:41:24;;;;;;;7.70;4.17;;;4.30;98.00;;;;;;5073578;28;20452;-69
2024/02/14 01:43:52;;;;;;;7.57;4.30;;;4.20;98.00;;;;;;5073206;28;20456;-69
2024/02/14 01:46:19;;;;;;;8.93;4.57;;;3.90;98.00;;;;;;5072308;28;20443;-69
2024/02/14 01:48:46;;;;;;;5.90;3.83;;;3.70;98.00;;;;;;5072896;28;20444;-69
2024/02/14 01:51:17;;;;;;;11.20;4.93;;;3.70;98.00;;;;;;5055395;28;20506;-69
2024/02/14 01:53:45;;;;;;;10.80;4.47;;;3.70;98.00;;;;;;5072796;28;20453;-69
2024/02/14 01:56:15;;;;;;;9.00;4.80;;;3.80;98.00;;;;;;5072975;28;20451;-69
2024/02/14 01:58:44;;;;;;;7.77;3.97;;;4.00;98.00;;;;;;5054925;28;20457;-68
2024/02/14 02:01:12;;;;;;;8.40;4.30;;;4.30;98.00;;;;;;5055396;28;20511;-69
2024/02/14 02:03:39;;;;;;;11.00;4.77;;;4.30;98.00;;;;;;5072775;28;20460;-69
2024/02/14 02:06:07;;;;;;;10.93;4.67;;;4.30;98.00;;;;;;5055290;28;20452;-69
2024/02/14 02:08:34;;;;;;;9.80;4.67;;;4.40;98.00;;;;;;5072524;28;20445;-69
2024/02/14 02:11:01;;;;;;;9.60;4.57;;;4.20;98.00;;;;;;5072599;28;20458;-69
2024/02/14 02:13:30;;;;;;;8.57;4.33;;;4.10;98.00;;;;;;5072506;28;20445;-69
2024/02/14 02:15:57;;;;;;;11.80;4.87;;;4.10;98.00;;;;;;5038452;28;20458;-69
2024/02/14 02:18:25;;;;;;;8.10;4.60;;;4.10;98.00;;;;;;5072653;28;20451;-69
2024/02/14 02:20:52;;;;;;;8.53;4.50;;;4.20;98.00;;;;;;5072554;28;20509;-69
2024/02/14 02:23:21;;;;;;;8.67;4.50;;;4.10;98.00;;;;;;5054877;28;20448;-69
2024/02/14 02:25:50;;;;;;;12.30;4.67;;;4.00;98.00;;;;;;5054578;28;20520;-69
2024/02/14 02:28:18;;;;;;;7.50;4.03;;;4.10;98.00;;;;;;5072782;28;20457;-69
2024/02/14 02:30:46;;;;;;;10.07;4.87;;;4.20;98.00;;;;;;5072567;28;20927;-69
2024/02/14 02:33:13;;;;;;;9.90;5.00;;;4.20;98.00;;;;;;5072509;28;20836;-69
2024/02/14 02:35:45;;;;;;;9.67;4.60;;;4.20;98.00;;;;;;5072414;28;20492;-69
2024/02/14 02:38:12;;;;;;;12.10;4.77;;;4.20;98.00;;;;;;5072572;28;20458;-69
2024/02/14 02:40:40;;;;;;;10.63;4.63;;;4.20;98.00;;;;;;5072225;28;20471;-69
2024/02/14 02:43:07;;;;;;;11.60;4.30;;;4.20;98.00;;;;;;5072344;28;20464;-69
2024/02/14 02:45:38;;;;;;;11.47;4.40;;;4.20;98.00;;;;;;5072378;28;20453;-69
2024/02/14 02:48:14;;;;;;;11.07;4.70;;;4.30;98.00;;;;;;5056523;28;20453;-69
2024/02/14 02:50:42;;;;;;;8.67;4.70;;;4.30;98.00;;;;;;5054047;28;20952;-69
2024/02/14 02:53:09;;;;;;;7.00;4.43;;;4.30;98.00;;;;;;5054499;28;20514;-69
2024/02/14 02:55:37;;;;;;;7.57;4.27;;;4.40;98.00;;;;;;5072203;28;20443;-69
2024/02/14 02:58:09;;;;;;;11.30;4.63;;;4.50;98.00;;;;;;5071746;28;20463;-68
2024/02/14 03:00:36;;;;;;;7.90;4.30;;;4.50;98.00;;;;;;5071618;28;20512;-69
2024/02/14 03:03:04;;;;;;;7.60;4.00;;;4.70;98.00;;;;;;5071805;28;20508;-69
2024/02/14 03:05:33;;;;;;;9.00;4.60;;;4.70;98.00;;;;;;5071739;28;20454;-69
2024/02/14 03:08:01;;;;;;;14.13;5.20;;;4.80;98.00;;;;;;5071898;28;21137;-69
2024/02/14 03:10:29;;;;;;;8.00;4.20;;;4.80;98.00;;;;;;5070237;28;21063;-70
2024/02/14 03:12:56;;;;;;;8.80;4.47;;;4.70;98.00;;;;;;5051490;28;20490;-69
2024/02/14 03:15:26;;;;;;;9.20;4.30;;;4.60;98.00;;;;;;5051860;28;20840;-69
2024/02/14 03:17:53;;;;;;;9.10;4.50;;;4.50;98.00;;;;;;5050396;28;20524;-69
2024/02/14 03:20:20;;;;;;;11.07;4.80;;;4.40;98.00;;;;;;5051524;28;20446;-69
2024/02/14 03:22:47;;;;;;;15.43;4.73;;;4.30;98.00;;;;;;5051507;28;20461;-69
2024/02/14 03:25:16;;;;;;;9.63;4.20;;;4.30;98.00;;;;;;5051711;28;20471;-69
2024/02/14 03:27:47;;;;;;;8.53;4.07;;;4.30;98.00;;;;;;5051721;28;20453;-69
2024/02/14 03:30:16;;;;;;;9.80;4.57;;;4.20;98.00;;;;;;5051669;28;20447;-69
2024/02/14 03:32:45;;;;;;;9.60;4.33;;;4.30;98.00;;;;;;5050024;28;20485;-68
2024/02/14 03:35:13;;;;;;;7.43;4.10;;;4.60;98.00;;;;;;5051548;28;20461;-69
2024/02/14 03:37:42;;;;;;;7.37;4.20;;;4.60;98.00;;;;;;5051597;28;20460;-69
2024/02/14 03:40:11;;;;;;;9.53;4.40;;;4.60;98.00;;;;;;5050307;28;20464;-69
2024/02/14 03:42:41;;;;;;;10.90;4.20;;;4.50;98.00;;;;;;5053510;28;20551;-69
2024/02/14 03:45:09;;;;;;;7.90;4.13;;;4.40;98.00;;;;;;5052688;28;20470;-69
2024/02/14 03:47:36;;;;;;;9.50;4.03;;;4.30;98.00;;;;;;5070813;28;20457;-69
2024/02/14 03:50:05;;;;;;;9.53;4.53;;;4.30;98.00;;;;;;5071321;28;20462;-69
2024/02/14 03:52:33;;;;;;;7.03;4.00;;;4.20;98.00;;;;;;5071727;28;21073;-69
2024/02/14 03:55:00;;;;;;;8.70;4.20;;;4.00;98.00;;;;;;5071474;28;20480;-69
2024/02/14 03:57:28;;;;;;;8.70;4.50;;;4.00;98.00;;;;;;5071076;28;20511;-69
2024/02/14 03:59:56;;;;;;;10.83;4.27;;;4.00;98.00;;;;;;5071461;28;20452;-68
2024/02/14 04:02:24;;;;;;;8.37;4.27;;;3.90;98.00;;;;;;5053348;28;20555;-68
2024/02/14 04:04:51;;;;;;;10.43;4.63;;;3.90;98.00;;;;;;5071622;28;20455;-69
2024/02/14 04:07:19;;;;;;;10.60;4.67;;;4.00;98.00;;;;;;5053673;28;20475;-69
2024/02/14 04:09:47;;;;;;;10.20;4.03;;;4.00;98.00;;;;;;5073334;28;20447;-69
2024/02/14 04:12:14;;;;;;;8.23;4.30;;;4.00;98.00;;;;;;5074797;28;21183;-69
2024/02/14 04:14:41;;;;;;;9.40;4.50;;;4.00;98.00;;;;;;5074980;28;20450;-69
2024/02/14 04:17:08;;;;;;;9.97;4.30;;;3.90;98.00;;;;;;5057245;28;20456;-68
2024/02/14 04:19:35;;;;;;;8.40;4.60;;;3.90;98.00;;;;;;5074703;28;20802;-68
2024/02/14 04:22:02;;;;;;;11.43;4.20;;;4.00;98.00;;;;;;5074898;28;20532;-69
2024/02/14 04:24:34;;;;;;;6.10;3.97;;;4.00;98.00;;;;;;5075246;28;20979;-69
2024/02/14 04:27:03;;;;;;;9.80;4.20;;;3.90;98.00;;;;;;5075066;28;20824;-69
2024/02/14 04:29:32;;;;;;;10.33;3.97;;;4.00;98.00;;;;;;5040625;28;20554;-69
2024/02/14 04:32:00;;;;;;;7.10;4.00;;;4.20;98.00;;;;;;5074536;28;20475;-69
2024/02/14 04:34:27;;;;;;;8.90;4.50;;;4.30;98.00;;;;;;5074364;28;20460;-69
2024/02/14 04:36:54;;;;;;;9.00;4.47;;;4.30;98.00;;;;;;5074274;28;21026;-69
2024/02/14 04:39:23;;;;;;;8.43;4.10;;;4.40;98.00;;;;;;5073701;28;20448;-68
2024/02/14 04:41:53;;;;;;;9.63;4.20;;;4.50;98.00;;;;;;5074413;28;20985;-69
2024/02/14 04:44:20;;;;;;;7.17;4.07;;;4.70;98.00;;;;;;5074156;28;20507;-69
2024/02/14 04:46:48;;;;;;;8.63;3.97;;;4.60;98.00;;;;;;5074222;28;20448;-69
2024/02/14 04:49:16;;;;;;;8.37;3.97;;;4.60;98.00;;;;;;5056391;28;20541;-69
2024/02/14 04:51:43;;;;;;;7.37;4.40;;;4.50;98.00;;;;;;5074014;28;20622;-69
2024/02/14 04:54:10;;;;;;;11.23;5.70;;;4.60;98.00;;;;;;5074167;28;20504;-69
2024/02/14 04:56:37;;;;;;;12.30;5.40;;;4.70;98.00;;;;;;5074086;28;20445;-69
2024/02/14 04:59:06;;;;;;;7.53;4.67;;;4.70;98.00;;;;;;5073935;28;20569;-68
2024/02/14 05:01:33;;;;;;;9.60;4.90;;;4.80;98.00;;;;;;5073820;28;20463;-68
2024/02/14 05:04:00;;;;;;;13.80;4.60;;;4.80;98.00;;;;;;5073575;28;20451;-69
2024/02/14 05:06:27;;;;;;;8.40;4.20;;;4.80;98.00;;;;;;5073933;28;20460;-69
2024/02/14 05:08:54;;;;;;;7.13;4.07;;;4.80;98.00;;;;;;5073650;28;20844;-69
2024/02/14 05:11:21;;;;;;;10.90;4.97;;;4.80;98.00;;;;;;5073680;28;20449;-69
2024/02/14 05:13:49;;;;;;;9.40;4.67;;;4.70;98.00;;;;;;5073685;28;20565;-69
2024/02/14 05:16:21;;;;;;;7.83;4.43;;;4.60;98.00;;;;;;5073768;28;20511;-69
2024/02/14 05:18:48;;;;;;;14.93;4.70;;;4.60;98.00;;;;;;5071691;28;20464;-69
2024/02/14 05:21:16;;;;;;;10.40;4.20;;;4.60;98.00;;;;;;5073670;28;20458;-69
2024/02/14 05:23:43;;;;;;;7.57;4.33;;;4.50;98.00;;;;;;5073559;28;20448;-69
2024/02/14 05:26:10;;;;;;;10.33;4.30;;;4.50;98.00;;;;;;5073579;28;20969;-68
2024/02/14 05:28:39;;;;;;;9.20;4.00;;;4.50;98.00;;;;;;5072767;28;21027;-69
2024/02/14 05:31:07;;;;;;;9.50;4.20;;;4.40;98.00;;;;;;5055320;28;20494;-69
2024/02/14 05:33:35;;;;;;;11.00;4.10;;;4.50;98.00;;;;;;5072651;28;20984;-68
2024/02/14 05:36:03;;;;;;;9.90;4.83;;;4.70;98.00;;;;;;5072873;28;20955;-69
2024/02/14 05:38:31;;;;;;;8.50;4.70;;;5.00;98.00;;;;;;5073770;28;20474;-69
2024/02/14 05:40:58;;;;;;;8.77;3.97;;;5.10;98.00;;;;;;5073308;28;20457;-69
2024/02/14 05:43:25;;;;;;;10.83;5.07;;;5.10;98.00;;;;;;5073548;28;20446;-69
2024/02/14 05:45:53;;;;;;;11.00;5.40;;;4.90;98.00;;;;;;5055437;28;20445;-69
2024/02/14 05:48:20;;;;;;;10.27;4.50;;;4.90;98.00;;;;;;5073302;28;20462;-69
2024/02/14 05:50:49;;;;;;;10.50;5.30;;;4.90;98.00;;;;;;5073336;28;20468;-69
2024/02/14 05:53:16;;;;;;;10.37;5.50;;;5.00;98.00;;;;;;5055400;28;20484;-68
2024/02/14 05:55:43;;;;;;;11.43;5.70;;;5.10;98.00;;;;;;5073314;28;20451;-69
2024/02/14 05:58:11;;;;;;;14.73;5.40;;;5.30;98.00;;;;;;5073096;28;20791;-68
2024/02/14 06:00:40;;;;;;;17.83;6.10;;;5.20;98.00;;;;;;5072667;28;20522;-66
2024/02/14 06:03:08;;;;;;;13.83;6.00;;;5.30;98.00;;;;;;5055628;28;20479;-66
2024/02/14 06:05:35;;;;;;;10.70;5.07;;;5.30;98.00;;;;;;5055400;28;20453;-66
2024/02/14 06:08:04;;;;;;;10.07;5.27;;;5.20;98.00;;;;;;5072558;28;20467;-69
2024/02/14 06:10:31;;;;;;;10.30;4.70;;;5.00;98.00;;;;;;5072921;28;20446;-69
2024/02/14 06:12:59;;;;;;;10.50;5.07;;;4.90;98.00;;;;;;5072779;28;20474;-69
2024/02/14 06:15:26;;;;;;;11.00;5.23;;;5.00;98.00;;;;;;5072691;28;20458;-69
2024/02/14 06:17:54;;;;;;;9.57;4.93;;;4.90;98.00;;;;;;5072673;28;20436;-68
2024/02/14 06:20:22;;;;;;;10.00;4.97;;;4.90;98.00;;;;;;5072291;28;20957;-69
2024/02/14 06:22:52;;;;;;;9.67;5.50;;;5.00;98.00;;;;;;5073001;28;20454;-69
2024/02/14 06:25:20;;;;;;;12.67;5.43;;;5.20;98.00;;;;;;5070829;28;20537;-68
2024/02/14 06:27:47;;;;;;;8.77;5.13;;;5.20;98.00;;;;;;5072578;28;20457;-69
2024/02/14 06:30:16;;;;;;;17.07;5.80;;;5.10;98.00;;;;;;5072422;28;20451;-69
2024/02/14 06:32:43;;;;;;;10.90;5.77;;;5.10;98.00;;;;;;5071523;28;20479;-69
2024/02/14 06:35:11;;;;;;;11.90;5.30;;;5.10;98.00;;;;;;5072251;28;20931;-69
2024/02/14 06:37:38;;;;;;;9.40;5.00;;;5.20;98.00;;;;;;5054464;28;20455;-69
2024/02/14 06:40:08;;;;;;;10.80;5.00;;;5.30;98.00;;;;;;5054569;28;20453;-68
2024/02/14 06:42:37;;;;;;;11.17;5.60;;;5.40;98.00;;;;;;5072040;28;20473;-69
2024/02/14 06:45:05;;;;;;;9.27;4.93;;;5.40;98.00;;;;;;5071501;28;20465;-69
2024/02/14 06:47:32;;;;;;;11.23;5.13;;;5.60;98.00;;;;;;5072243;28;20516;-69
2024/02/14 06:49:59;;;;;;;10.60;5.20;;;5.50;98.00;;;;;;5072320;28;20956;-68
2024/02/14 06:52:27;;;;;;;9.10;4.60;;;5.50;98.00;;;;;;5054257;28;20952;-69
2024/02/14 06:54:54;;;;;;;9.77;5.17;;;5.50;98.00;;;;;;5071844;28;20990;-69
2024/02/14 06:57:21;;;;;;;9.40;5.50;;;5.40;98.00;;;;;;5072134;28;20467;-68
2024/02/14 06:59:50;;;;;;;10.47;4.67;;;5.40;98.00;;;;;;5072089;28;20456;-64
2024/02/14 07:02:17;;;;;;;10.80;5.10;;;5.40;98.00;;;;;;5071839;28;20490;-63
2024/02/14 07:04:44;;;;;;;12.83;5.30;;;5.40;98.00;;;;;;5054288;28;20505;-64
2024/02/14 07:07:11;;;;;;;11.93;5.07;;;5.30;98.00;;;;;;5071786;28;20447;-64
2024/02/14 07:09:39;;;;;;;9.03;4.70;;;5.40;98.00;;;;;;5071958;28;20856;-64
2024/02/14 07:12:06;;;;;;;9.60;4.93;;;5.50;98.00;;;;;;5071899;28;20467;-64
2024/02/14 07:14:33;;;;;;;9.40;5.23;;;5.50;98.00;;;;;;5071701;28;20481;-64
2024/02/14 07:17:02;;;;;;;11.87;5.40;;;5.40;98.00;;;;;;5071666;28;20924;-64
2024/02/14 07:19:30;;;;;;;9.43;4.70;;;5.40;98.00;;;;;;5072028;28;20461;-64
2024/02/14 07:21:57;;;;;;;10.97;5.27;;;5.50;98.00;;;;;;5071768;28;21006;-64
2024/02/14 07:24:24;;;;;;;9.53;4.57;;;5.50;98.00;;;;;;5071852;28;20965;-64
2024/02/14 07:26:51;;;;;;;9.83;4.70;;;5.70;98.00;;;;;;5071777;28;20455;-64
2024/02/14 07:29:19;;;;;;;11.17;5.03;;;5.60;98.00;;;;;;5053861;28;20457;-63
2024/02/14 07:31:46;;;;;;;8.47;4.53;;;5.60;98.00;;;;;;5071701;28;20461;-64
2024/02/14 07:34:14;;;;;;;9.83;5.10;;;5.70;98.00;;;;;;5071608;28;20489;-64
2024/02/14 07:36:46;;;;;;;10.30;4.80;;;5.80;98.00;;;;;;5071697;28;20455;-64
2024/02/14 07:39:13;;;;;;;13.27;4.60;;;5.90;98.00;;;;;;5054474;28;20490;-64
2024/02/14 07:41:40;;;;;;;10.27;4.90;;;5.80;98.00;;;;;;5053766;28;20893;-64
2024/02/14 07:44:08;;;;;;;8.87;5.00;;;5.80;98.00;;;;;;5072845;28;20486;-64
2024/02/14 07:46:35;;;;;;;9.40;4.87;;;5.80;98.00;;;;;;5075774;28;20475;-64
2024/02/14 07:49:02;;;;;;;12.33;5.53;;;5.90;98.00;;;;;;5075206;28;20457;-63
2024/02/14 07:51:36;;;;;;;10.43;4.60;;;6.00;98.00;;;;;;5058166;28;20784;-64
2024/02/14 07:54:03;;;;;;;10.93;5.37;;;6.20;98.00;;;;;;5058311;28;20496;-63
2024/02/14 07:56:31;;;;;;;11.60;5.50;;;6.40;98.00;;;;;;5075651;28;20833;-63
2024/02/14 07:58:58;;;;;;;14.80;6.27;;;6.30;98.00;;;;;;5075415;28;20918;-63
2024/02/14 08:01:26;;;;;;;11.20;5.97;;;6.40;98.00;;;;;;5075411;28;20799;-64
2024/02/14 08:03:53;;;;;;;14.73;6.00;;;6.40;98.00;;;;;;5075377;28;20465;-64
2024/02/14 08:06:20;;;;;;;10.97;5.53;;;6.30;98.00;;;;;;5057651;28;20797;-64
2024/02/14 08:08:52;;;;;;;16.53;5.80;;;6.30;98.00;;;;;;5075285;28;20454;-64
2024/02/14 08:11:19;;;;;;;12.67;6.27;;;6.30;98.00;;;;;;5075211;28;20504;-64
2024/02/14 08:13:47;;;;;;;11.00;5.37;;;6.30;98.00;;;;;;5074899;28;20978;-64
2024/02/14 08:16:14;;;;;;;12.20;5.60;;;6.30;98.00;;;;;;5075000;28;20488;-64
2024/02/14 08:18:43;;;;;;;9.27;5.37;;;6.30;98.00;;;;;;5074870;28;20486;-64
2024/02/14 08:21:12;;;;;;;15.97;6.80;;;6.50;98.00;;;;;;5074653;28;20461;-64
2024/02/14 08:23:41;;;;;;;14.77;6.27;;;6.70;98.00;;;;;;5074978;28;20816;-64
2024/02/14 08:26:10;;;;;;;12.37;6.10;;;6.70;98.00;;;;;;5074409;28;20506;-64
2024/02/14 08:28:37;;;;;;;11.20;5.30;;;6.60;98.00;;;;;;5074697;28;20452;-64
2024/02/14 08:31:04;;;;;;;11.80;5.63;;;6.70;98.00;;;;;;5074383;28;20450;-64
2024/02/14 08:33:31;;;;;;;13.57;5.70;;;6.70;98.00;;;;;;5056480;28;20810;-64
2024/02/14 08:36:00;;;;;;;11.83;5.67;;;6.80;98.00;;;;;;5074467;28;20459;-64
2024/02/14 08:38:27;;;;;;;10.20;5.23;;;6.90;98.00;;;;;;5056854;28;20453;-64
2024/02/14 08:40:54;;;;;;;11.87;5.20;;;7.00;98.00;;;;;;5071086;28;20449;-65
2024/02/14 08:43:24;;;;;;;8.50;4.70;;;7.10;98.00;;;;;;5057621;28;20527;-61
2024/02/14 08:45:52;;;;;;;14.03;6.63;;;7.10;98.00;;;;;;5053333;28;20446;-62
2024/02/14 08:48:20;;;;;;;14.13;6.20;;;7.20;98.00;;;;;;5068247;28;20504;-61
2024/02/14 08:50:47;;;;;;;14.37;6.80;;;7.40;98.00;;;;;;5053911;28;20968;-61
2024/02/14 08:53:15;;;;;;;17.53;7.80;;;7.50;98.00;;;;;;5054236;28;20453;-61
2024/02/14 08:55:43;;;;;;;14.37;6.83;;;7.60;98.00;;;;;;5053671;28;20548;-62
2024/02/14 08:58:10;;;;;;;10.70;5.90;;;7.50;98.00;;;;;;5053496;28;20569;-62
2024/02/14 09:00:48;;;;;;;12.80;6.83;;;7.40;98.00;;;;;;5052835;28;20501;-62
2024/02/14 09:03:22;;;;;;;19.60;7.70;;;7.40;98.00;;;;;;5054072;28;20449;-61
2024/02/14 09:05:49;;;;;;;13.87;6.30;;;7.50;98.00;;;;;;5053927;28;20829;-62
2024/02/14 09:08:16;;;;;;;14.67;6.60;;;7.50;98.00;;;;;;5058496;28;20455;-61
2024/02/14 09:10:45;;;;;;;13.30;7.20;;;7.50;98.00;;;;;;5056025;28;20490;-61
2024/02/14 09:13:13;;;;;;;12.60;6.50;;;7.60;98.00;;;;;;5073766;28;20464;-61
2024/02/14 09:15:42;;;;;;;17.97;7.00;;;7.80;98.00;;;;;;5056026;28;20850;-62
2024/02/14 09:18:09;;;;;;;12.83;6.40;;;7.90;98.00;;;;;;5073570;28;20444;-62
2024/02/14 09:20:37;;;;;;;12.30;6.27;;;8.10;98.00;;;;;;5072941;28;20448;-61
2024/02/14 09:23:04;;;;;;;12.03;6.27;;;8.30;98.00;;;;;;5073570;28;20459;-61
2024/02/14 09:25:32;;;;;;;11.10;5.87;;;8.30;98.00;;;;;;5073396;28;20456;-61
2024/02/14 09:28:02;;;;;;;11.40;5.87;;;8.50;98.00;;;;;;5055695;28;20471;-64
2024/02/14 09:30:30;;;;;;;15.10;5.97;;;8.70;98.00;;;;;;5073262;28;20466;-64
2024/02/14 09:32:59;;;;;;;12.60;5.60;;;8.80;98.00;;;;;;5073338;28;20479;-64
2024/02/14 09:35:26;;;;;;;11.77;6.10;;;8.80;98.00;;;;;;5072880;28;20586;-64
2024/02/14 09:37:54;;;;;;;13.30;6.23;;;8.90;98.00;;;;;;5073278;28;20468;-64
2024/02/14 09:40:21;;;;;;;14.70;6.50;;;8.80;98.00;;;;;;5073295;28;20447;-64
2024/02/14 09:42:54;;;;;;;14.23;6.30;;;8.90;98.00;;;;;;5073225;28;20475;-64
2024/02/14 09:45:22;;;;;;;14.10;5.90;;;8.90;98.00;;;;;;5072692;28;20445;-64
2024/02/14 09:47:51;;;;;;;14.20;5.20;;;8.90;98.00;;;;;;5067998;28;20455;-64
2024/02/14 09:50:21;;;;;;;9.37;5.07;;;8.90;98.00;;;;;;5053030;28;20461;-64
2024/02/14 09:52:49;;;;;;;10.10;4.87;;;8.90;98.00;;;;;;5053313;28;20545;-64
2024/02/14 09:55:17;;;;;;;14.03;4.90;;;8.90;98.00;;;;;;5053316;28;20514;-64
2024/02/14 09:57:45;;;;;;;10.30;4.60;;;9.00;98.00;;;;;;5053259;28;20453;-64
2024/02/14 10:00:15;;;;;;;6.83;4.20;;;9.10;98.00;;;;;;5053093;28;20452;-64
2024/02/14 10:02:42;;;;;;;5.73;3.50;;;9.30;98.00;;;;;;5052847;28;20533;-64
2024/02/14 10:05:10;;;;;;;7.20;3.70;;;9.30;98.00;;;;;;5052652;28;20460;-64
2024/02/14 10:07:46;;;;;;;4.97;3.20;;;9.40;98.00;;;;;;5051822;28;20457;-64
2024/02/14 10:10:14;;;;;;;7.50;3.33;;;9.60;98.00;;;;;;5051999;28;20453;-64
2024/02/14 10:12:42;;;;;;;5.80;3.03;;;9.70;98.00;;;;;;5052395;28;20545;-64
2024/02/14 10:15:10;;;;;;;5.40;3.00;;;9.80;98.00;;;;;;5052588;28;20485;-64
2024/02/14 10:17:40;;;;;;;6.20;3.17;;;10.00;98.00;;;;;;5052857;28;20450;-64
2024/02/14 10:20:08;;;;;;;5.53;3.20;;;10.20;98.00;;;;;;5052451;28;20509;-64
2024/02/14 10:22:36;;;;;;;8.30;3.70;;;10.40;98.00;;;;;;5052446;28;20445;-64
2024/02/14 10:25:08;;;;;;;6.43;3.30;;;10.60;98.00;;;;;;5052599;28;20450;-64
2024/02/14 10:27:40;;;;;;;5.60;3.53;;;10.70;98.00;;;;;;5052518;28;20454;-64
2024/02/14 10:30:10;;;;;;;7.10;4.27;;;10.80;98.00;;;;;;5052196;28;21053;-64
2024/02/14 10:32:37;;;;;;;6.90;3.30;;;10.90;98.00;;;;;;5052359;28;20486;-64
2024/02/14 10:35:08;;;;;;;3.40;2.50;;;11.00;98.00;;;;;;5052333;28;20480;-64
2024/02/14 10:37:36;;;;;;;4.57;2.67;;;11.10;98.00;;;;;;5052071;28;20458;-65
2024/02/14 10:40:06;;;;;;;2.67;1.93;;;11.30;98.00;;;;;;5051841;28;20484;-64
2024/02/14 10:42:34;;;;;;;4.97;2.00;;;11.50;98.00;;;;;;5052050;28;20453;-64
2024/02/14 10:45:01;;;;;;;3.70;2.30;;;11.70;98.00;;;;;;5052018;28;20456;-64
2024/02/14 10:47:32;;;;;;;2.97;2.20;;;11.90;98.00;;;;;;5052160;28;20962;-64
2024/02/14 10:52:35;;;;;;;3.77;2.20;;;12.10;98.00;;;;;;5252676;22;20500;-62
2024/02/14 10:55:06;;;;;;;5.40;2.30;;;12.10;98.00;;;;;;5039835;28;20488;-62
2024/02/14 10:57:33;;;;;;;3.50;2.23;;;12.20;98.00;;;;;;5060347;28;20499;-62
2024/02/14 11:00:04;;;;;;;5.20;2.27;;;12.30;98.00;;;;;;5049780;28;20458;-62
2024/02/14 11:02:32;;;;;;;6.00;2.37;;;12.30;98.00;;;;;;5050780;28;20461;-62
2024/02/14 11:05:02;;;;;;;4.60;2.67;;;12.40;98.00;;;;;;5050940;28;20937;-61
2024/02/14 11:07:30;;;;;;;3.57;2.20;;;12.40;98.00;;;;;;5051961;28;20450;-62
2024/02/14 11:10:08;;;;;;;3.73;2.17;;;12.30;98.00;;;;;;5051831;28;20491;-63
2024/02/14 11:12:36;;;;;;;3.77;2.30;;;12.50;98.00;;;;;;5032736;28;20455;-62
2024/02/14 11:15:10;;;;;;;3.90;2.20;;;12.90;98.00;;;;;;5051736;28;20519;-62
2024/02/14 11:17:38;;;;;;;3.93;2.20;;;13.20;98.00;;;;;;5035349;28;20464;-62
2024/02/14 11:20:15;;;;;;;3.63;2.50;;;13.40;98.00;;;;;;5073221;28;20452;-64
2024/02/14 11:22:54;;;;;;;2.43;2.10;;;13.60;98.00;;;;;;5060261;28;20458;-64
2024/02/14 11:25:30;;;;;;;4.80;2.40;;;13.70;98.00;;;;;;5077605;28;20459;-65
2024/02/14 11:27:57;;;;;;;3.10;2.43;;;13.80;98.00;;;;;;5078447;28;20536;-65
2024/02/14 11:30:31;;;;;;;3.40;2.50;;;13.90;98.00;;;;;;5060566;28;20483;-65
2024/02/14 11:33:17;;;;;;;4.93;2.47;;;13.70;98.00;;;;;;5078286;28;20536;-65
2024/02/14 11:35:46;;;;;;;3.10;2.37;;;13.70;98.00;;;;;;5078064;28;20544;-65
2024/02/14 11:38:14;;;;;;;4.50;2.73;;;13.40;98.00;;;;;;5078584;28;20446;-64
2024/02/14 11:40:42;;;;;;;6.47;2.87;;;13.30;98.00;;;;;;5078078;28;20457;-65
2024/02/14 11:43:14;;;;;;;2.67;2.20;;;13.20;98.00;;;;;;5078432;28;20455;-65
2024/02/14 11:45:43;;;;;;;3.87;2.40;;;13.10;98.00;;;;;;5078256;28;20447;-65
2024/02/14 11:48:12;;;;;;;4.40;2.40;;;13.10;98.00;;;;;;5078249;28;20455;-65
2024/02/14 11:50:41;;;;;;;2.90;2.30;;;13.00;98.00;;;;;;5077948;28;20959;-65
2024/02/14 11:53:11;;;;;;;2.90;2.27;;;13.00;98.00;;;;;;5077962;28;20451;-65
2024/02/14 11:55:39;;;;;;;4.93;2.20;;;13.00;98.00;;;;;;5078115;28;20574;-65
2024/02/14 11:58:13;;;;;;;3.83;2.30;;;12.90;98.00;;;;;;5078014;28;20453;-65
2024/02/14 12:00:41;;;;;;;4.20;2.03;;;13.00;98.00;;;;;;5077485;28;20461;-65
2024/02/14 12:03:09;;;;;;;2.97;2.10;;;12.80;98.00;;;;;;5077663;28;20456;-64
2024/02/14 12:05:38;;;;;;;3.37;2.10;;;12.80;98.00;;;;;;5077567;28;20552;-65
2024/02/14 12:08:07;;;;;;;3.00;1.90;;;12.80;98.00;;;;;;5077674;28;20490;-64
2024/02/14 12:10:36;;;;;;;2.20;1.90;;;12.80;98.00;;;;;;5077896;28;20506;-65
2024/02/14 12:13:11;;;;;;;2.13;1.63;;;12.80;98.00;;;;;;5077773;28;20498;-65
2024/02/14 12:15:41;;;;;;;2.23;1.70;;;12.90;98.00;;;;;;5077726;28;20550;-65
2024/02/14 12:18:10;;;;;;;3.30;2.17;;;12.90;98.00;;;;;;5043454;28;20459;-64
2024/02/14 12:20:37;;;;;;;2.00;1.60;;;12.90;98.00;;;;;;5064456;28;20485;-64
2024/02/14 12:23:05;;;;;;;2.80;1.80;;;12.90;98.00;;;;;;5056817;28;20487;-65
2024/02/14 12:25:32;;;;;;;2.60;1.63;;;12.90;98.00;;;;;;5056892;28;20490;-65
2024/02/14 12:28:00;;;;;;;1.60;1.60;;;12.90;98.00;;;;;;5056753;28;20494;-65
2024/02/14 12:30:45;;;;;;;1.60;1.53;;;13.00;98.00;;;;;;5059060;28;20529;-65
2024/02/14 12:33:12;;;;;;;3.00;1.83;;;13.10;98.00;;;;;;5073662;28;20864;-65
2024/02/14 12:35:43;;;;;;;4.00;1.80;;;13.10;98.00;;;;;;5073424;28;20489;-65
2024/02/14 12:38:14;;;;;;;3.37;1.70;;;13.10;98.00;;;;;;5073842;28;20463;-65
2024/02/14 12:40:44;;;;;;;2.47;1.73;;;13.10;98.00;;;;;;5055307;28;20453;-65
2024/02/14 12:43:17;;;;;;;3.13;1.67;;;13.20;98.00;;;;;;5053616;28;20861;-64
2024/02/14 12:45:46;;;;;;;6.10;1.97;;;13.10;98.00;;;;;;5053337;28;20468;-65
2024/02/14 12:48:15;;;;;;;2.90;1.70;;;13.00;98.00;;;;;;5053316;28;20451;-65
2024/02/14 12:50:47;;;;;;;4.10;1.70;;;13.10;98.00;;;;;;5053481;28;21076;-65
2024/02/14 12:53:14;;;;;;;6.30;2.30;;;13.00;98.00;;;;;;5052588;28;20446;-65
2024/02/14 12:55:43;;;;;;;3.47;1.90;;;13.00;98.00;;;;;;5053137;28;20487;-65
2024/02/14 12:58:10;;;;;;;2.23;1.70;;;13.20;98.00;;;;;;5053229;28;20479;-65